sensor_id;sensor_type;location;lat;lon;timestamp;temperature;humidity
6930;DHT22;3504;52.616;13.238;2022-09-09T00:04:32;15.43;86.21
6930;DHT22;3504;52.616;13.238;2022-09-09T00:09:58;15.33;86.73
6930;DHT22;3504;52.616;13.238;2022-09-09T00:15:19;15.29;87.49
6930;DHT22;3504;52.616;13.238;2022-09-09T00:20:28;15.24;86.61
6930;DHT22;3504;52.616;13.238;2022-09-09T00:25:57;15.23;86.50
6930;DHT22;3504;52.616;13.238;2022-09-09T00:31:12;15.18;86.57
6930;DHT22;3504;52.616;13.238;2022-09-09T00:36:20;15.12;86.36
6930;DHT22;3504;52.616;13.238;2022-09-09T00:58:02;14.92;86.06
6930;DHT22;3504;52.616;13.238;2022-09-09T01:09:29;14.82;85.99
6930;DHT22;3504;52.616;13.238;2022-09-09T01:30:43;14.67;85.93
6930;DHT22;3504;52.616;13.238;2022-09-09T01:41:05;14.64;86.23
6930;DHT22;3504;52.616;13.238;2022-09-09T01:46:29;14.55;86.24
6930;DHT22;3504;52.616;13.238;2022-09-09T01:51:31;14.45;86.07
6930;DHT22;3504;52.616;13.238;2022-09-09T02:02:12;14.38;86.18
6930;DHT22;3504;52.616;13.238;2022-09-09T02:07:46;14.37;86.64
6930;DHT22;3504;52.616;13.238;2022-09-09T02:13:11;14.36;87.23
6930;DHT22;3504;52.616;13.238;2022-09-09T02:18:15;14.30;86.92
6930;DHT22;3504;52.616;13.238;2022-09-09T02:23:20;14.26;87.06
6930;DHT22;3504;52.616;13.238;2022-09-09T02:28:27;14.18;86.96
6930;DHT22;3504;52.616;13.238;2022-09-09T02:33:36;14.18;86.79
6930;DHT22;3504;52.616;13.238;2022-09-09T02:38:45;14.16;87.06
6930;DHT22;3504;52.616;13.238;2022-09-09T02:43:50;14.13;87.88
6930;DHT22;3504;52.616;13.238;2022-09-09T02:49:09;14.13;87.68
6930;DHT22;3504;52.616;13.238;2022-09-09T02:54:34;14.14;87.37
6930;DHT22;3504;52.616;13.238;2022-09-09T02:59:40;14.12;86.98
6930;DHT22;3504;52.616;13.238;2022-09-09T03:04:44;14.07;87.37
6930;DHT22;3504;52.616;13.238;2022-09-09T03:09:51;14.03;87.12
6930;DHT22;3504;52.616;13.238;2022-09-09T03:14:55;14.02;86.73
6930;DHT22;3504;52.616;13.238;2022-09-09T03:19:57;13.97;86.52
6930;DHT22;3504;52.616;13.238;2022-09-09T03:25:00;13.95;86.40
6930;DHT22;3504;52.616;13.238;2022-09-09T03:30:04;13.87;86.23
6930;DHT22;3504;52.616;13.238;2022-09-09T03:35:07;13.76;86.43
6930;DHT22;3504;52.616;13.238;2022-09-09T03:40:10;13.73;86.45
6930;DHT22;3504;52.616;13.238;2022-09-09T03:45:12;13.63;86.55
6930;DHT22;3504;52.616;13.238;2022-09-09T03:50:15;13.66;86.29
6930;DHT22;3504;52.616;13.238;2022-09-09T03:55:20;13.65;86.19
6930;DHT22;3504;52.616;13.238;2022-09-09T04:00:21;13.61;86.10
6930;DHT22;3504;52.616;13.238;2022-09-09T04:05:26;13.59;86.11
6930;DHT22;3504;52.616;13.238;2022-09-09T04:10:27;13.58;86.11
6930;DHT22;3504;52.616;13.238;2022-09-09T04:15:32;13.55;86.18
6930;DHT22;3504;52.616;13.238;2022-09-09T04:20:33;13.55;86.36
6930;DHT22;3504;52.616;13.238;2022-09-09T04:25:34;13.53;86.44
6930;DHT22;3504;52.616;13.238;2022-09-09T04:30:35;13.51;86.19
6930;DHT22;3504;52.616;13.238;2022-09-09T04:35:38;13.44;86.26
6930;DHT22;3504;52.616;13.238;2022-09-09T04:40:48;13.42;86.28
6930;DHT22;3504;52.616;13.238;2022-09-09T04:45:51;13.39;86.08
6930;DHT22;3504;52.616;13.238;2022-09-09T04:51:04;13.36;86.25
6930;DHT22;3504;52.616;13.238;2022-09-09T04:56:15;13.35;86.45
6930;DHT22;3504;52.616;13.238;2022-09-09T05:01:24;13.38;86.44
6930;DHT22;3504;52.616;13.238;2022-09-09T05:06:27;13.42;87.53
6930;DHT22;3504;52.616;13.238;2022-09-09T05:11:33;13.44;87.53
6930;DHT22;3504;52.616;13.238;2022-09-09T05:16:46;13.52;87.25
6930;DHT22;3504;52.616;13.238;2022-09-09T05:21:48;13.61;87.29
6930;DHT22;3504;52.616;13.238;2022-09-09T05:26:53;13.71;87.17
6930;DHT22;3504;52.616;13.238;2022-09-09T05:31:53;13.85;87.15
6930;DHT22;3504;52.616;13.238;2022-09-09T05:36:57;13.97;88.02
6930;DHT22;3504;52.616;13.238;2022-09-09T05:41:59;14.03;88.70
6930;DHT22;3504;52.616;13.238;2022-09-09T05:47:01;14.20;88.43
6930;DHT22;3504;52.616;13.238;2022-09-09T05:52:03;14.36;87.89
6930;DHT22;3504;52.616;13.238;2022-09-09T05:57:05;14.51;87.93
6930;DHT22;3504;52.616;13.238;2022-09-09T06:02:08;14.61;88.12
6930;DHT22;3504;52.616;13.238;2022-09-09T06:07:12;14.68;88.36
6930;DHT22;3504;52.616;13.238;2022-09-09T06:12:15;14.77;88.82
6930;DHT22;3504;52.616;13.238;2022-09-09T06:17:17;14.92;88.83
6930;DHT22;3504;52.616;13.238;2022-09-09T06:22:18;15.15;89.13
6930;DHT22;3504;52.616;13.238;2022-09-09T06:27:19;15.30;89.49
6930;DHT22;3504;52.616;13.238;2022-09-09T06:32:21;15.44;89.46
6930;DHT22;3504;52.616;13.238;2022-09-09T06:37:23;15.61;89.25
6930;DHT22;3504;52.616;13.238;2022-09-09T06:42:24;15.75;88.84
6930;DHT22;3504;52.616;13.238;2022-09-09T06:47:28;15.82;89.04
6930;DHT22;3504;52.616;13.238;2022-09-09T06:52:31;15.87;88.83
6930;DHT22;3504;52.616;13.238;2022-09-09T06:57:34;15.90;88.54
6930;DHT22;3504;52.616;13.238;2022-09-09T07:02:36;15.98;88.37
6930;DHT22;3504;52.616;13.238;2022-09-09T07:07:41;16.14;88.26
6930;DHT22;3504;52.616;13.238;2022-09-09T07:12:43;16.33;88.73
6930;DHT22;3504;52.616;13.238;2022-09-09T07:17:47;16.57;87.96
6930;DHT22;3504;52.616;13.238;2022-09-09T07:22:48;16.72;87.32
6930;DHT22;3504;52.616;13.238;2022-09-09T07:27:50;16.76;87.19
6930;DHT22;3504;52.616;13.238;2022-09-09T07:32:53;16.93;87.33
6930;DHT22;3504;52.616;13.238;2022-09-09T07:37:55;17.13;85.56
6930;DHT22;3504;52.616;13.238;2022-09-09T07:42:57;17.17;85.43
6930;DHT22;3504;52.616;13.238;2022-09-09T07:47:59;17.27;85.67
6930;DHT22;3504;52.616;13.238;2022-09-09T07:53:00;17.31;84.90
6930;DHT22;3504;52.616;13.238;2022-09-09T07:58:02;17.44;85.98
6930;DHT22;3504;52.616;13.238;2022-09-09T08:03:15;17.54;84.70
6930;DHT22;3504;52.616;13.238;2022-09-09T08:08:30;17.74;84.41
6930;DHT22;3504;52.616;13.238;2022-09-09T08:13:30;17.93;83.65
6930;DHT22;3504;52.616;13.238;2022-09-09T08:18:33;18.23;82.96
6930;DHT22;3504;52.616;13.238;2022-09-09T08:23:34;18.53;82.44
6930;DHT22;3504;52.616;13.238;2022-09-09T08:28:36;18.77;82.38
6930;DHT22;3504;52.616;13.238;2022-09-09T08:33:38;18.88;80.99
6930;DHT22;3504;52.616;13.238;2022-09-09T08:38:42;19.10;79.06
6930;DHT22;3504;52.616;13.238;2022-09-09T08:43:46;19.39;78.57
6930;DHT22;3504;52.616;13.238;2022-09-09T08:49:01;19.64;78.15
6930;DHT22;3504;52.616;13.238;2022-09-09T08:54:07;19.61;78.22
6930;DHT22;3504;52.616;13.238;2022-09-09T08:59:15;19.50;77.40
6930;DHT22;3504;52.616;13.238;2022-09-09T09:15:31;19.38;78.99
6930;DHT22;3504;52.616;13.238;2022-09-09T09:21:13;19.46;77.51
6930;DHT22;3504;52.616;13.238;2022-09-09T09:26:16;19.66;77.92
6930;DHT22;3504;52.616;13.238;2022-09-09T09:31:19;19.69;77.03
6930;DHT22;3504;52.616;13.238;2022-09-09T09:36:44;20.22;78.58
6930;DHT22;3504;52.616;13.238;2022-09-09T09:41:52;20.96;75.27
6930;DHT22;3504;52.616;13.238;2022-09-09T09:47:22;21.50;73.30
6930;DHT22;3504;52.616;13.238;2022-09-09T09:53:03;21.75;71.96
6930;DHT22;3504;52.616;13.238;2022-09-09T09:58:15;22.01;69.59
6930;DHT22;3504;52.616;13.238;2022-09-09T10:03:29;22.09;69.07
6930;DHT22;3504;52.616;13.238;2022-09-09T10:08:43;22.55;67.34
6930;DHT22;3504;52.616;13.238;2022-09-09T10:14:14;22.76;67.28
6930;DHT22;3504;52.616;13.238;2022-09-09T10:19:36;22.41;66.83
6930;DHT22;3504;52.616;13.238;2022-09-09T10:36:13;23.25;64.62
6930;DHT22;3504;52.616;13.238;2022-09-09T10:57:48;23.89;61.59
6930;DHT22;3504;52.616;13.238;2022-09-09T11:03:24;23.93;62.01
6930;DHT22;3504;52.616;13.238;2022-09-09T11:08:29;24.14;61.76
6930;DHT22;3504;52.616;13.238;2022-09-09T11:19:04;24.39;60.11
6930;DHT22;3504;52.616;13.238;2022-09-09T11:25:18;24.47;59.59
6930;DHT22;3504;52.616;13.238;2022-09-09T11:40:27;24.50;57.30
6930;DHT22;3504;52.616;13.238;2022-09-09T11:45:28;24.39;56.62
6930;DHT22;3504;52.616;13.238;2022-09-09T11:50:36;24.40;57.50
6930;DHT22;3504;52.616;13.238;2022-09-09T11:55:37;24.44;55.24
6930;DHT22;3504;52.616;13.238;2022-09-09T12:00:47;24.71;55.92
6930;DHT22;3504;52.616;13.238;2022-09-09T12:05:50;24.71;54.79
6930;DHT22;3504;52.616;13.238;2022-09-09T12:10:58;24.73;53.65
6930;DHT22;3504;52.616;13.238;2022-09-09T12:16:00;24.28;54.64
6930;DHT22;3504;52.616;13.238;2022-09-09T12:32:07;24.45;54.56
6930;DHT22;3504;52.616;13.238;2022-09-09T12:37:35;24.00;55.95
6930;DHT22;3504;52.616;13.238;2022-09-09T12:42:39;23.79;56.41
6930;DHT22;3504;52.616;13.238;2022-09-09T12:48:03;24.04;55.28
6930;DHT22;3504;52.616;13.238;2022-09-09T12:53:31;24.04;54.44
6930;DHT22;3504;52.616;13.238;2022-09-09T12:58:37;23.56;55.29
6930;DHT22;3504;52.616;13.238;2022-09-09T13:03:43;23.25;56.92
6930;DHT22;3504;52.616;13.238;2022-09-09T13:08:47;23.08;58.21
6930;DHT22;3504;52.616;13.238;2022-09-09T13:13:55;22.95;57.22
6930;DHT22;3504;52.616;13.238;2022-09-09T13:19:13;22.92;57.50
6930;DHT22;3504;52.616;13.238;2022-09-09T13:24:42;22.91;57.92
6930;DHT22;3504;52.616;13.238;2022-09-09T13:29:52;22.88;57.32
6930;DHT22;3504;52.616;13.238;2022-09-09T13:35:00;22.86;58.29
6930;DHT22;3504;52.616;13.238;2022-09-09T13:40:03;22.86;58.65
6930;DHT22;3504;52.616;13.238;2022-09-09T13:45:23;22.64;56.96
6930;DHT22;3504;52.616;13.238;2022-09-09T13:50:28;22.53;57.85
6930;DHT22;3504;52.616;13.238;2022-09-09T13:55:30;22.53;59.41
6930;DHT22;3504;52.616;13.238;2022-09-09T14:00:33;22.44;59.27
6930;DHT22;3504;52.616;13.238;2022-09-09T14:05:35;22.46;60.01
6930;DHT22;3504;52.616;13.238;2022-09-09T14:10:36;22.47;60.26
6930;DHT22;3504;52.616;13.238;2022-09-09T14:15:38;22.44;61.29
6930;DHT22;3504;52.616;13.238;2022-09-09T14:20:39;22.55;60.73
6930;DHT22;3504;52.616;13.238;2022-09-09T14:25:46;22.61;59.59
6930;DHT22;3504;52.616;13.238;2022-09-09T14:30:47;22.90;59.64
6930;DHT22;3504;52.616;13.238;2022-09-09T14:35:56;23.08;58.33
6930;DHT22;3504;52.616;13.238;2022-09-09T14:40:57;23.07;58.81
6930;DHT22;3504;52.616;13.238;2022-09-09T14:46:07;23.11;57.69
6930;DHT22;3504;52.616;13.238;2022-09-09T14:51:15;23.12;56.78
6930;DHT22;3504;52.616;13.238;2022-09-09T14:56:19;23.17;55.89
6930;DHT22;3504;52.616;13.238;2022-09-09T15:01:21;23.07;53.59
6930;DHT22;3504;52.616;13.238;2022-09-09T15:06:24;23.02;55.33
6930;DHT22;3504;52.616;13.238;2022-09-09T15:11:35;22.95;55.81
6930;DHT22;3504;52.616;13.238;2022-09-09T15:16:39;22.95;55.14
6930;DHT22;3504;52.616;13.238;2022-09-09T15:21:40;22.90;54.66
6930;DHT22;3504;52.616;13.238;2022-09-09T15:26:42;22.84;54.91
6930;DHT22;3504;52.616;13.238;2022-09-09T15:31:43;22.71;54.56
6930;DHT22;3504;52.616;13.238;2022-09-09T15:36:45;22.60;55.66
6930;DHT22;3504;52.616;13.238;2022-09-09T15:41:47;22.49;56.37
6930;DHT22;3504;52.616;13.238;2022-09-09T15:46:51;22.33;56.90
6930;DHT22;3504;52.616;13.238;2022-09-09T15:51:59;22.25;57.80
6930;DHT22;3504;52.616;13.238;2022-09-09T15:57:05;22.09;58.29
6930;DHT22;3504;52.616;13.238;2022-09-09T16:02:06;21.99;60.07
6930;DHT22;3504;52.616;13.238;2022-09-09T16:07:08;21.89;60.59
6930;DHT22;3504;52.616;13.238;2022-09-09T16:12:09;21.76;62.45
6930;DHT22;3504;52.616;13.238;2022-09-09T16:17:14;21.58;63.70
6930;DHT22;3504;52.616;13.238;2022-09-09T16:22:15;21.45;64.17
6930;DHT22;3504;52.616;13.238;2022-09-09T16:27:17;21.33;64.80
6930;DHT22;3504;52.616;13.238;2022-09-09T16:32:18;21.20;66.48
6930;DHT22;3504;52.616;13.238;2022-09-09T16:37:20;21.07;67.29
6930;DHT22;3504;52.616;13.238;2022-09-09T16:42:20;20.87;67.44
6930;DHT22;3504;52.616;13.238;2022-09-09T16:47:22;20.79;67.97
6930;DHT22;3504;52.616;13.238;2022-09-09T16:52:22;20.71;67.97
6930;DHT22;3504;52.616;13.238;2022-09-09T16:57:24;20.59;68.74
6930;DHT22;3504;52.616;13.238;2022-09-09T17:02:25;20.46;68.91
6930;DHT22;3504;52.616;13.238;2022-09-09T17:07:27;20.33;69.15
6930;DHT22;3504;52.616;13.238;2022-09-09T17:12:28;20.24;69.14
6930;DHT22;3504;52.616;13.238;2022-09-09T17:17:29;20.17;69.43
6930;DHT22;3504;52.616;13.238;2022-09-09T17:22:30;19.97;70.64
6930;DHT22;3504;52.616;13.238;2022-09-09T17:27:31;19.87;71.26
6930;DHT22;3504;52.616;13.238;2022-09-09T17:32:32;19.75;71.33
6930;DHT22;3504;52.616;13.238;2022-09-09T17:37:34;19.64;72.11
6930;DHT22;3504;52.616;13.238;2022-09-09T17:42:35;19.54;72.69
6930;DHT22;3504;52.616;13.238;2022-09-09T17:47:37;19.32;74.06
6930;DHT22;3504;52.616;13.238;2022-09-09T17:52:37;19.15;74.80
6930;DHT22;3504;52.616;13.238;2022-09-09T17:57:39;19.10;74.01
6930;DHT22;3504;52.616;13.238;2022-09-09T18:02:39;19.00;74.39
6930;DHT22;3504;52.616;13.238;2022-09-09T18:07:41;18.89;74.93
6930;DHT22;3504;52.616;13.238;2022-09-09T18:12:42;18.77;74.69
6930;DHT22;3504;52.616;13.238;2022-09-09T18:17:44;18.64;75.01
6930;DHT22;3504;52.616;13.238;2022-09-09T18:22:44;18.51;75.52
6930;DHT22;3504;52.616;13.238;2022-09-09T18:27:46;18.40;74.97
6930;DHT22;3504;52.616;13.238;2022-09-09T18:32:48;18.38;75.04
6930;DHT22;3504;52.616;13.238;2022-09-09T18:37:50;18.33;75.21
6930;DHT22;3504;52.616;13.238;2022-09-09T18:42:51;18.20;75.60
6930;DHT22;3504;52.616;13.238;2022-09-09T18:47:53;18.13;75.33
6930;DHT22;3504;52.616;13.238;2022-09-09T18:52:53;18.03;75.30
6930;DHT22;3504;52.616;13.238;2022-09-09T18:57:55;17.95;75.09
6930;DHT22;3504;52.616;13.238;2022-09-09T19:02:57;17.90;73.86
6930;DHT22;3504;52.616;13.238;2022-09-09T19:07:59;17.89;73.01
6930;DHT22;3504;52.616;13.238;2022-09-09T19:13:00;17.92;72.84
6930;DHT22;3504;52.616;13.238;2022-09-09T19:18:02;17.96;73.07
6930;DHT22;3504;52.616;13.238;2022-09-09T19:23:04;18.02;73.18
6930;DHT22;3504;52.616;13.238;2022-09-09T19:28:05;17.97;72.91
6930;DHT22;3504;52.616;13.238;2022-09-09T19:33:06;18.00;72.59
6930;DHT22;3504;52.616;13.238;2022-09-09T19:38:08;17.95;72.34
6930;DHT22;3504;52.616;13.238;2022-09-09T19:43:09;17.92;72.05
6930;DHT22;3504;52.616;13.238;2022-09-09T19:48:11;17.95;72.20
6930;DHT22;3504;52.616;13.238;2022-09-09T19:53:11;17.89;72.19
6930;DHT22;3504;52.616;13.238;2022-09-09T19:58:13;17.86;72.33
6930;DHT22;3504;52.616;13.238;2022-09-09T20:03:14;17.78;72.67
6930;DHT22;3504;52.616;13.238;2022-09-09T20:08:16;17.69;73.04
6930;DHT22;3504;52.616;13.238;2022-09-09T20:13:16;17.58;73.21
6930;DHT22;3504;52.616;13.238;2022-09-09T20:18:18;17.54;73.13
6930;DHT22;3504;52.616;13.238;2022-09-09T20:23:18;17.46;72.79
6930;DHT22;3504;52.616;13.238;2022-09-09T20:28:21;17.46;72.84
6930;DHT22;3504;52.616;13.238;2022-09-09T20:33:22;17.39;72.20
6930;DHT22;3504;52.616;13.238;2022-09-09T20:38:24;17.36;71.31
6930;DHT22;3504;52.616;13.238;2022-09-09T20:43:24;17.39;70.75
6930;DHT22;3504;52.616;13.238;2022-09-09T20:48:26;17.39;70.83
6930;DHT22;3504;52.616;13.238;2022-09-09T20:53:27;17.32;70.93
6930;DHT22;3504;52.616;13.238;2022-09-09T20:58:32;17.27;70.91
6930;DHT22;3504;52.616;13.238;2022-09-09T21:03:35;17.20;71.15
6930;DHT22;3504;52.616;13.238;2022-09-09T21:08:37;17.17;71.47
6930;DHT22;3504;52.616;13.238;2022-09-09T21:13:39;17.15;71.86
6930;DHT22;3504;52.616;13.238;2022-09-09T21:18:41;17.13;72.10
6930;DHT22;3504;52.616;13.238;2022-09-09T21:23:43;17.01;72.48
6930;DHT22;3504;52.616;13.238;2022-09-09T21:28:45;16.97;72.68
6930;DHT22;3504;52.616;13.238;2022-09-09T21:33:46;16.89;73.16
6930;DHT22;3504;52.616;13.238;2022-09-09T21:38:48;16.87;73.56
6930;DHT22;3504;52.616;13.238;2022-09-09T21:43:52;16.80;73.55
6930;DHT22;3504;52.616;13.238;2022-09-09T21:48:54;16.76;73.71
6930;DHT22;3504;52.616;13.238;2022-09-09T21:53:56;16.73;73.96
6930;DHT22;3504;52.616;13.238;2022-09-09T21:58:58;16.67;74.31
6930;DHT22;3504;52.616;13.238;2022-09-09T22:04:03;16.62;74.45
6930;DHT22;3504;52.616;13.238;2022-09-09T22:09:04;16.56;74.57
6930;DHT22;3504;52.616;13.238;2022-09-09T22:14:05;16.52;74.97
6930;DHT22;3504;52.616;13.238;2022-09-09T22:19:07;16.51;74.83
6930;DHT22;3504;52.616;13.238;2022-09-09T22:24:08;16.52;74.81
6930;DHT22;3504;52.616;13.238;2022-09-09T22:29:10;16.51;74.90
6930;DHT22;3504;52.616;13.238;2022-09-09T22:34:11;16.43;75.22
6930;DHT22;3504;52.616;13.238;2022-09-09T22:39:13;16.41;75.27
6930;DHT22;3504;52.616;13.238;2022-09-09T22:44:13;16.39;75.25
6930;DHT22;3504;52.616;13.238;2022-09-09T22:49:15;16.35;75.54
6930;DHT22;3504;52.616;13.238;2022-09-09T22:54:16;16.31;75.70
6930;DHT22;3504;52.616;13.238;2022-09-09T22:59:23;16.22;76.04
6930;DHT22;3504;52.616;13.238;2022-09-09T23:04:23;16.19;76.13
6930;DHT22;3504;52.616;13.238;2022-09-09T23:09:26;16.14;76.02
6930;DHT22;3504;52.616;13.238;2022-09-09T23:14:26;16.05;76.34
6930;DHT22;3504;52.616;13.238;2022-09-09T23:19:28;15.97;76.45
6930;DHT22;3504;52.616;13.238;2022-09-09T23:24:29;15.91;76.46
6930;DHT22;3504;52.616;13.238;2022-09-09T23:29:30;15.77;77.20
6930;DHT22;3504;52.616;13.238;2022-09-09T23:34:32;15.73;77.96
6930;DHT22;3504;52.616;13.238;2022-09-09T23:39:33;15.67;78.63
6930;DHT22;3504;52.616;13.238;2022-09-09T23:44:35;15.66;78.61
6930;DHT22;3504;52.616;13.238;2022-09-09T23:49:38;15.61;79.31
6930;DHT22;3504;52.616;13.238;2022-09-09T23:54:39;15.63;79.50
6930;DHT22;3504;52.616;13.238;2022-09-09T23:59:40;15.63;79.40
